CST,Max TemperatureF,Mean TemperatureF,Min TemperatureF,Max Dew PointF,MeanDew PointF,Min DewpointF,Max Humidity, Mean Humidity, Min Humidity, Max Sea Level PressureIn, Mean Sea Level PressureIn, Min Sea Level PressureIn, Max VisibilityMiles, Mean VisibilityMiles, Min VisibilityMiles, Max Wind SpeedMPH, Mean Wind SpeedMPH, Max Gust SpeedMPH,PrecipitationIn, CloudCover, Events, WindDirDegrees
2012-11-1,66,48,29,36,26,16,89,53,17,30.06,30.00,29.97,10,10,10,10,3,16,0.00,1,,263
2012-11-2,77,59,40,47,41,35,82,58,33,30.03,29.99,29.95,10,10,10,13,4,17,0.00,2,,290
2012-11-3,84,64,44,57,48,40,90,60,29,30.09,30.03,29.94,10,9,2,24,6,33,0.28,3,Rain-Thunderstorm,237
2012-11-4,63,51,38,57,46,37,93,68,43,30.13,30.08,29.99,10,9,2,14,5,18,0.00,5,,1
2012-11-5,60,47,34,42,37,31,92,66,40,30.13,30.06,29.99,10,8,5,13,4,16,0.12,6,Rain,52
2012-11-6,52,48,43,46,45,41,89,83,77,30.04,29.98,29.96,10,7,4,9,3,13,0.29,8,Rain,25
2012-11-7,55,47,38,44,40,35,93,76,59,30.14,30.01,29.93,10,9,2,18,5,29,0.09,6,Rain,313
2012-11-8,59,46,32,42,36,30,96,72,47,30.27,30.22,30.14,10,4,0,8,2,12,0.00,3,Fog,9
2012-11-9,69,51,33,43,36,30,92,62,32,30.32,30.24,30.19,10,7,1,8,4,16,0.00,1,Fog,141
2012-11-10,72,56,40,46,41,37,89,62,35,30.33,30.27,30.21,10,10,8,13,6,16,0.00,0,,130
2012-11-11,72,57,42,49,44,37,82,60,37,30.31,30.23,30.14,10,10,10,22,11,31,0.00,4,,143
2012-11-12,65,50,35,58,48,31,90,73,56,30.43,30.25,30.13,10,7,1,18,9,25,1.04,7,Rain,303
2012-11-13,54,42,30,31,27,26,89,62,35,30.49,30.41,30.35,10,10,10,20,9,25,0.00,0,,3
2012-11-14,57,45,33,36,31,27,82,62,41,30.40,30.33,30.29,10,10,10,12,4,15,0.00,5,,42
2012-11-15,62,47,31,38,32,28,89,61,32,30.34,30.29,30.25,10,10,8,12,2,14,0.00,2,Fog,352
2012-11-16,63,48,33,34,31,29,89,58,27,30.36,30.32,30.29,10,10,7,13,5,16,0.00,1,,6
2012-11-17,65,49,32,35,31,28,82,55,28,30.45,30.39,30.35,10,10,9,17,3,23,0.00,0,,44
2012-11-18,67,50,32,35,32,29,85,56,26,30.43,30.37,30.31,10,10,8,9,3,12,0.00,0,,73
2012-11-19,67,51,35,42,38,32,89,65,40,30.35,30.27,30.20,10,10,10,6,0,8,0.00,3,,35
2012-11-20,69,55,40,45,41,37,92,64,35,30.22,30.15,30.09,10,10,8,9,2,13,0.00,4,Fog,230
2012-11-21,71,57,42,47,44,40,89,65,41,30.20,30.17,30.11,10,9,4,9,3,14,0.00,1,,352
2012-11-22,72,54,36,47,39,34,93,64,34,30.26,30.21,30.16,10,5,0,10,3,14,0.00,2,Fog,211
2012-11-23,61,51,40,49,40,29,86,66,46,30.22,30.17,30.14,10,10,8,13,6,16,0.00,4,,317
2012-11-24,48,38,27,31,22,19,70,52,34,30.32,30.24,30.17,10,10,10,13,5,18,0.00,2,,353
2012-11-25,59,43,26,29,24,20,85,54,23,30.20,30.14,30.06,10,10,10,10,4,15,0.00,0,,141
2012-11-26,66,51,36,50,40,26,83,63,43,30.19,30.13,30.08,10,9,2,10,5,20,0.10,6,Rain,142
2012-11-27,57,48,39,52,41,31,93,82,70,30.34,30.21,30.09,10,7,2,16,9,21,0.08,8,Rain,10
2012-11-28,55,43,31,31,29,26,82,59,35,30.47,30.41,30.35,10,9,6,10,4,14,0.00,3,,13
2012-11-29,61,45,28,33,29,25,92,61,29,30.44,30.36,30.30,10,10,7,9,3,14,0.00,2,,119
2012-11-30,65,51,36,45,39,30,83,63,43,30.36,30.29,30.23,10,10,9,15,5,21,0.00,2,,138